createdAt,value
2023-04-15T00:01:41.095Z,74.47
2023-04-15T00:04:08.078Z,75.75
2023-04-15T00:06:36.879Z,78.17
2023-04-15T00:09:05.290Z,77.57
2023-04-15T00:11:32.216Z,78.22
2023-04-15T00:13:59.139Z,78.60
2023-04-15T00:16:26.098Z,79.54
2023-04-15T00:18:53.062Z,80.37
2023-04-15T00:21:20.018Z,80.41
2023-04-15T00:23:46.994Z,80.33
2023-04-15T00:26:15.465Z,78.66
2023-04-15T00:28:43.362Z,78.42
2023-04-15T00:31:10.371Z,76.86
2023-04-15T00:33:37.218Z,76.21
2023-04-15T00:36:06.340Z,76.02
2023-04-15T00:38:33.301Z,76.08
2023-04-15T00:41:00.535Z,77.38
2023-04-15T00:43:28.820Z,77.51
2023-04-15T00:45:59.673Z,77.47
2023-04-15T00:48:28.110Z,77.27
2023-04-15T00:50:55.189Z,77.15
2023-04-15T00:53:22.117Z,76.95
2023-04-15T00:55:49.421Z,76.12
2023-04-15T00:58:16.780Z,75.56
2023-04-15T01:00:45.649Z,75.97
2023-04-15T01:03:12.935Z,75.45
2023-04-15T01:05:40.043Z,75.55
2023-04-15T01:08:07.203Z,74.95
2023-04-15T01:10:34.260Z,74.96
2023-04-15T01:13:02.670Z,75.70
2023-04-15T01:15:29.890Z,75.79
2023-04-15T01:18:00.351Z,75.61
2023-04-15T01:20:29.228Z,75.61
2023-04-15T01:22:56.719Z,75.27
2023-04-15T01:25:32.405Z,75.84
2023-04-15T01:27:59.792Z,76.14
2023-04-15T01:30:26.942Z,76.47
2023-04-15T01:32:54.412Z,75.98
2023-04-15T01:35:40.828Z,75.79
2023-04-15T01:38:11.179Z,75.96
2023-04-15T01:40:40.866Z,76.21
2023-04-15T01:43:07.941Z,76.31
2023-04-15T01:45:34.985Z,76.13
2023-04-15T01:48:04.513Z,78.55
2023-04-15T01:50:31.434Z,78.78
2023-04-15T01:52:58.429Z,78.55
2023-04-15T01:55:25.522Z,78.85
2023-04-15T01:57:53.771Z,79.53
2023-04-15T02:00:21.776Z,79.34
2023-04-15T02:02:48.986Z,78.90
2023-04-15T02:05:16.798Z,80.00
2023-04-15T02:07:48.290Z,81.42
2023-04-15T02:10:15.111Z,80.76
2023-04-15T02:12:42.394Z,80.68
2023-04-15T02:15:11.350Z,81.25
2023-04-15T02:17:38.581Z,81.70
2023-04-15T02:20:08.651Z,81.57
2023-04-15T02:22:36.106Z,80.89
2023-04-15T02:25:03.314Z,80.44
2023-04-15T02:27:32.288Z,79.95
2023-04-15T02:29:59.344Z,80.08
2023-04-15T02:32:27.872Z,79.41
2023-04-15T02:34:55.960Z,79.43
2023-04-15T02:37:23.246Z,78.91
2023-04-15T02:39:50.329Z,78.91
2023-04-15T02:42:18.587Z,78.73
2023-04-15T02:44:45.510Z,78.34
2023-04-15T02:47:12.745Z,77.59
2023-04-15T02:49:40.997Z,77.07
2023-04-15T02:52:08.208Z,77.05
2023-04-15T02:54:35.252Z,78.36
2023-04-15T02:57:02.615Z,78.52
2023-04-15T02:59:29.558Z,78.54
2023-04-15T03:07:11.529Z,80.46
2023-04-15T03:09:43.919Z,80.95
2023-04-15T03:12:10.844Z,81.02
2023-04-15T03:14:37.753Z,80.64
2023-04-15T03:17:05.111Z,80.10
2023-04-15T03:19:32.462Z,79.52
2023-04-15T03:21:59.419Z,79.63
2023-04-15T03:24:27.839Z,80.08
2023-04-15T03:26:56.628Z,80.08
2023-04-15T03:29:24.337Z,80.19
2023-04-15T03:31:52.635Z,80.06
2023-04-15T03:34:19.700Z,79.87
2023-04-15T03:36:47.176Z,79.50
2023-04-15T03:39:14.218Z,79.64
2023-04-15T03:41:42.619Z,79.23
2023-04-15T03:44:09.528Z,79.31
2023-04-15T03:46:36.627Z,79.07
2023-04-15T03:49:03.656Z,78.73
2023-04-15T03:51:30.700Z,78.88
2023-04-15T03:53:57.570Z,79.34
2023-04-15T03:56:24.627Z,79.55
2023-04-15T03:58:53.163Z,79.11
2023-04-15T04:01:20.343Z,79.21
2023-04-15T04:03:47.422Z,78.49
2023-04-15T04:06:14.984Z,78.69
2023-04-15T04:08:42.306Z,78.30
2023-04-15T04:11:09.365Z,78.40
2023-04-15T04:13:36.337Z,78.90
2023-04-15T04:16:05.961Z,79.39
2023-04-15T04:18:33.603Z,80.00
2023-04-15T04:21:00.964Z,80.13
2023-04-15T04:23:27.997Z,80.23
2023-04-15T04:25:55.485Z,80.69
2023-04-15T04:28:22.500Z,81.22
2023-04-15T04:30:49.476Z,81.37
2023-04-15T04:33:17.815Z,80.89
2023-04-15T04:35:44.759Z,80.33
2023-04-15T04:38:11.602Z,81.29
2023-04-15T04:40:38.712Z,80.89
2023-04-15T04:43:05.867Z,80.75
2023-04-15T04:45:32.696Z,80.54
2023-04-15T04:48:00.234Z,80.66
2023-04-15T04:50:28.502Z,80.27
2023-04-15T04:52:55.863Z,79.43
2023-04-15T04:55:22.693Z,79.34
2023-04-15T04:57:49.897Z,80.90
2023-04-15T05:00:18.187Z,83.20
2023-04-15T05:02:46.307Z,85.41
2023-04-15T05:05:13.341Z,86.03
2023-04-15T05:07:41.662Z,86.72
2023-04-15T05:10:10.144Z,85.95
2023-04-15T05:12:37.122Z,85.23
2023-04-15T05:15:05.512Z,84.54
2023-04-15T05:17:32.637Z,84.38
2023-04-15T05:19:59.560Z,83.87
2023-04-15T05:22:26.955Z,83.46
2023-04-15T05:24:56.017Z,82.41
2023-04-15T05:27:23.128Z,80.61
2023-04-15T05:29:50.108Z,78.62
2023-04-15T05:32:17.102Z,77.92
2023-04-15T05:34:44.009Z,77.72
2023-04-15T05:37:11.016Z,76.69
2023-04-15T05:39:38.926Z,76.61
2023-04-15T05:42:07.158Z,77.01
2023-04-15T05:44:34.924Z,76.04
2023-04-15T05:47:02.118Z,74.32
2023-04-15T05:49:29.482Z,73.71
2023-04-15T05:51:56.713Z,72.78
2023-04-15T05:54:23.835Z,71.95
2023-04-15T05:56:51.230Z,69.21
2023-04-15T05:59:20.145Z,66.61
2023-04-15T06:01:47.057Z,66.68
2023-04-15T06:04:14.863Z,66.09
2023-04-15T06:06:41.962Z,66.01
2023-04-15T06:09:08.941Z,65.71
2023-04-15T06:11:35.970Z,68.30
2023-04-15T06:14:02.867Z,70.61
2023-04-15T06:16:31.319Z,71.06
2023-04-15T06:18:58.472Z,69.65
2023-04-15T06:21:25.632Z,69.45
2023-04-15T06:23:53.487Z,68.98
2023-04-15T06:26:20.607Z,68.25
2023-04-15T06:28:47.822Z,67.15
2023-04-15T06:31:14.939Z,66.24
2023-04-15T06:33:43.511Z,65.12
2023-04-15T06:36:10.427Z,61.27
2023-04-15T06:38:37.360Z,56.80
2023-04-15T06:41:04.847Z,53.50
2023-04-15T06:43:32.156Z,52.16
2023-04-15T06:45:59.184Z,53.02
2023-04-15T06:48:26.928Z,49.53
2023-04-15T06:50:56.418Z,46.75
2023-04-15T06:53:23.771Z,51.70
2023-04-15T06:55:51.273Z,53.10
2023-04-15T06:58:18.727Z,53.13
2023-04-15T07:00:46.936Z,61.16
2023-04-15T07:03:15.274Z,61.97
2023-04-15T07:05:42.239Z,65.67
2023-04-15T07:08:10.495Z,65.35
2023-04-15T07:10:37.433Z,64.21
2023-04-15T07:13:08.806Z,62.76
2023-04-15T07:15:35.930Z,63.98
2023-04-15T07:18:03.241Z,64.33
2023-04-15T07:20:30.646Z,62.92
2023-04-15T07:22:57.740Z,62.95
2023-04-15T07:25:26.080Z,61.08
2023-04-15T07:27:54.203Z,60.42
2023-04-15T07:30:21.391Z,60.07
2023-04-15T07:32:48.325Z,56.61
2023-04-15T07:35:15.876Z,53.83
2023-04-15T07:37:42.765Z,52.82
2023-04-15T07:40:11.597Z,50.15
2023-04-15T07:42:41.416Z,50.23
2023-04-15T07:45:09.898Z,52.22
2023-04-15T07:47:36.745Z,54.74
2023-04-15T07:50:04.536Z,52.38
2023-04-15T07:52:31.354Z,50.02
2023-04-15T07:54:58.425Z,49.54
2023-04-15T07:57:25.805Z,48.46
2023-04-15T07:59:53.981Z,45.86
2023-04-15T08:02:21.152Z,44.26
2023-04-15T08:04:48.531Z,41.12
2023-04-15T08:07:15.452Z,41.17
2023-04-15T08:09:42.306Z,38.64
2023-04-15T08:12:12.068Z,37.35
2023-04-15T08:14:39.170Z,36.17
2023-04-15T08:17:09.997Z,36.74
2023-04-15T08:19:36.874Z,32.75
2023-04-15T08:22:04.205Z,35.65
2023-04-15T08:24:32.131Z,37.34
2023-04-15T08:26:59.047Z,37.07
2023-04-15T08:31:12.392Z,42.67
2023-04-15T08:33:41.037Z,42.33
2023-04-15T08:36:08.325Z,39.61
2023-04-15T08:41:22.999Z,37.25
2023-04-15T08:43:54.431Z,38.09
2023-04-15T08:46:23.816Z,36.62
2023-04-15T08:48:51.187Z,36.33
2023-04-15T08:51:18.715Z,37.71
2023-04-15T08:53:46.848Z,39.24
2023-04-15T08:56:16.027Z,40.76
2023-04-15T08:58:45.228Z,41.86
2023-04-15T09:01:15.964Z,42.23
2023-04-15T09:03:45.122Z,44.85
2023-04-15T09:06:39.825Z,46.48
2023-04-15T09:09:08.761Z,47.48
2023-04-15T09:11:38.371Z,48.92
2023-04-15T09:14:05.531Z,50.11
2023-04-15T09:16:32.881Z,51.75
2023-04-15T09:19:20.751Z,51.23
2023-04-15T09:21:49.263Z,49.13
2023-04-15T09:24:37.731Z,48.92
2023-04-15T09:27:06.372Z,49.20
2023-04-15T09:29:33.584Z,49.90
2023-04-15T09:32:11.226Z,48.25
2023-04-15T09:34:39.512Z,49.89
2023-04-15T09:37:07.781Z,50.93
2023-04-15T09:39:50.722Z,51.67
2023-04-15T09:42:18.320Z,50.25
2023-04-15T09:44:50.352Z,48.25
2023-04-15T09:47:28.971Z,47.09
2023-04-15T09:49:58.453Z,47.16
2023-04-15T09:52:25.511Z,44.63
2023-04-15T09:54:54.873Z,44.40
2023-04-15T09:57:22.020Z,43.49
2023-04-15T09:59:49.233Z,45.51
2023-04-15T10:02:19.359Z,44.24
2023-04-15T10:04:48.921Z,44.60
2023-04-15T10:07:18.088Z,43.92
2023-04-15T10:09:46.447Z,42.98
2023-04-15T10:12:16.638Z,43.39
2023-04-15T10:14:44.244Z,41.94
2023-04-15T10:17:12.499Z,42.94
2023-04-15T10:19:41.321Z,41.04
2023-04-15T10:22:09.079Z,41.49
2023-04-15T10:24:40.298Z,40.95
2023-04-15T10:27:08.921Z,40.54
2023-04-15T10:29:36.762Z,38.85
2023-04-15T10:32:05.109Z,37.61
2023-04-15T10:34:33.291Z,38.58
2023-04-15T10:37:03.085Z,35.02
2023-04-15T10:39:43.771Z,35.64
2023-04-15T10:42:13.636Z,40.01
2023-04-15T10:44:49.016Z,41.34
2023-04-15T10:51:57.260Z,39.77
2023-04-15T10:54:33.146Z,39.40
2023-04-15T10:57:14.794Z,37.68
2023-04-15T11:00:18.001Z,36.30
2023-04-15T11:04:09.905Z,36.22
2023-04-15T11:06:45.162Z,37.46
2023-04-15T11:09:32.224Z,37.33
2023-04-15T11:12:09.294Z,37.96
2023-04-15T11:18:55.138Z,39.81
2023-04-15T11:21:25.750Z,39.60
2023-04-15T11:23:52.657Z,39.23
2023-04-15T11:26:19.474Z,39.80
2023-04-15T11:29:37.943Z,40.86
2023-04-15T11:32:05.999Z,41.93
2023-04-15T11:34:35.595Z,41.54
2023-04-15T11:37:05.195Z,41.99
2023-04-15T11:39:32.654Z,43.11
2023-04-15T11:42:00.455Z,43.29
2023-04-15T11:44:28.426Z,44.41
2023-04-15T11:46:56.687Z,43.79
2023-04-15T11:49:29.360Z,43.07
2023-04-15T11:51:56.302Z,44.69
2023-04-15T11:54:23.328Z,45.44
2023-04-15T11:56:54.223Z,46.16
2023-04-15T11:59:21.148Z,45.55
2023-04-15T12:01:48.065Z,45.65
2023-04-15T12:04:21.664Z,46.43
2023-04-15T12:06:51.777Z,45.33
2023-04-15T12:09:18.812Z,44.89
2023-04-15T12:14:35.921Z,39.36
2023-04-15T12:17:05.238Z,39.04
2023-04-15T12:19:37.583Z,39.03
2023-04-15T12:22:41.679Z,39.59
2023-04-15T12:25:10.477Z,39.04
2023-04-15T12:27:37.554Z,39.52
2023-04-15T12:30:06.224Z,39.64
2023-04-15T12:32:36.030Z,40.30
2023-04-15T12:35:05.647Z,40.53
2023-04-15T12:37:32.649Z,40.07
2023-04-15T12:39:59.610Z,40.73
2023-04-15T12:42:26.622Z,40.38
2023-04-15T12:44:53.861Z,39.64
2023-04-15T12:47:24.587Z,39.13
2023-04-15T12:50:18.652Z,39.14
2023-04-15T12:52:46.662Z,38.68
2023-04-15T12:55:14.046Z,37.81
2023-04-15T12:57:51.362Z,38.28
2023-04-15T13:00:18.719Z,38.77
2023-04-15T13:02:46.105Z,38.36
2023-04-15T13:05:13.245Z,38.65
2023-04-15T13:08:03.847Z,38.77
2023-04-15T13:10:31.113Z,40.24
2023-04-15T13:12:58.254Z,40.63
2023-04-15T13:15:27.831Z,41.68
2023-04-15T13:17:55.659Z,41.83
2023-04-15T13:20:23.992Z,42.36
2023-04-15T13:22:52.446Z,41.62
2023-04-15T13:25:21.206Z,41.97
2023-04-15T13:27:49.872Z,42.73
2023-04-15T13:30:21.705Z,43.43
2023-04-15T13:32:50.702Z,43.78
2023-04-15T13:35:18.019Z,44.14
2023-04-15T13:37:44.906Z,44.17
2023-04-15T13:40:12.402Z,44.06
2023-04-15T13:58:30.144Z,46.53
2023-04-15T14:00:57.050Z,45.50
2023-04-15T14:03:24.139Z,46.26
2023-04-15T14:05:51.928Z,46.10
2023-04-15T14:08:19.169Z,47.32
2023-04-15T14:10:46.337Z,45.34
2023-04-15T14:13:13.566Z,45.83
2023-04-15T14:15:43.695Z,45.58
2023-04-15T14:18:10.727Z,45.09
2023-04-15T14:20:37.657Z,45.26
2023-04-15T14:23:04.735Z,44.91
2023-04-15T14:25:34.048Z,44.70
2023-04-15T14:28:01.393Z,44.84
2023-04-15T14:30:28.501Z,45.71
2023-04-15T14:32:56.923Z,46.14
2023-04-15T14:35:24.965Z,46.85
2023-04-15T14:37:52.967Z,46.97
2023-04-15T14:40:20.371Z,47.23
2023-04-15T14:43:12.546Z,47.02
2023-04-15T14:45:42.161Z,47.05
2023-04-15T14:48:13.865Z,46.70
2023-04-15T14:50:41.478Z,47.47
2023-04-15T14:53:08.412Z,47.56
2023-04-15T14:55:35.433Z,47.69
2023-04-15T14:58:02.348Z,47.68
2023-04-15T15:00:30.737Z,47.72
2023-04-15T15:02:58.816Z,47.76
2023-04-15T15:05:27.913Z,47.74
2023-04-15T15:07:55.760Z,48.82
2023-04-15T15:10:32.709Z,49.59
2023-04-15T15:13:10.553Z,50.54
2023-04-15T15:15:38.805Z,52.91
2023-04-15T15:18:06.098Z,56.93
2023-04-15T15:20:34.387Z,59.80
2023-04-15T15:23:01.529Z,60.42
2023-04-15T15:25:28.962Z,62.50
2023-04-15T15:27:57.413Z,63.70
2023-04-15T15:30:25.348Z,64.52
2023-04-15T15:32:53.616Z,66.18
2023-04-15T15:35:22.514Z,67.17
2023-04-15T15:37:51.064Z,67.30
2023-04-15T15:40:18.353Z,67.28
2023-04-15T15:42:45.688Z,68.82
2023-04-15T15:45:12.532Z,68.93
2023-04-15T15:47:41.508Z,69.31
2023-04-15T15:50:09.516Z,70.27
2023-04-15T15:52:37.968Z,70.43
2023-04-15T15:55:08.070Z,70.78
2023-04-15T15:57:35.416Z,70.71
2023-04-15T16:00:12.047Z,71.14
2023-04-15T16:03:05.203Z,71.24
2023-04-15T16:05:27.574Z,71.16
2023-04-15T16:07:54.745Z,70.96
2023-04-15T16:10:24.051Z,70.98
2023-04-15T16:12:50.986Z,71.78
2023-04-15T16:15:18.646Z,71.73
2023-04-15T16:17:48.231Z,71.22
2023-04-15T16:20:15.544Z,70.79
2023-04-15T16:22:42.675Z,71.57
2023-04-15T16:25:17.421Z,72.20
2023-04-15T16:28:25.706Z,72.41
2023-04-15T16:30:53.822Z,73.48
2023-04-15T16:42:12.048Z,72.47
2023-04-15T16:44:40.662Z,72.77
2023-04-15T16:47:08.034Z,72.89
2023-04-15T16:49:34.890Z,72.48
2023-04-15T16:52:04.859Z,73.49
2023-04-15T16:54:31.834Z,73.18
2023-04-15T16:56:58.841Z,74.06
2023-04-15T16:59:25.785Z,74.15
2023-04-15T17:01:56.108Z,73.58
2023-04-15T17:04:23.676Z,74.17
2023-04-15T17:06:50.589Z,74.44
2023-04-15T17:09:17.533Z,74.21
2023-04-15T17:11:47.842Z,75.52
2023-04-15T17:14:14.899Z,75.46
2023-04-15T17:16:45.790Z,75.50
2023-04-15T17:19:15.010Z,75.56
2023-04-15T17:21:53.557Z,74.40
2023-04-15T17:24:22.311Z,74.16
2023-04-15T17:26:55.642Z,73.91
2023-04-15T17:29:39.864Z,79.09
2023-04-15T17:32:19.957Z,78.03
2023-04-15T17:35:09.850Z,77.59
2023-04-15T17:37:57.711Z,75.31
2023-04-15T17:40:44.560Z,74.58
2023-04-15T17:43:32.219Z,75.40
2023-04-15T17:46:21.263Z,75.78
2023-04-15T17:49:08.351Z,76.64
2023-04-15T17:51:58.230Z,76.77
2023-04-15T17:54:45.891Z,78.47
2023-04-15T17:57:33.295Z,78.05
2023-04-15T18:00:20.305Z,78.51
2023-04-15T18:03:08.155Z,79.39
2023-04-15T18:05:56.138Z,79.02
2023-04-15T18:08:44.427Z,79.86
2023-04-15T18:11:32.776Z,80.06
2023-04-15T18:14:33.051Z,80.99
2023-04-15T18:17:21.578Z,81.24
2023-04-15T18:20:09.494Z,81.45
2023-04-15T18:22:36.984Z,82.17
2023-04-15T18:25:07.115Z,82.06
2023-04-15T18:27:35.040Z,82.04
2023-04-15T18:30:02.412Z,82.61
2023-04-15T18:32:31.821Z,82.65
2023-04-15T18:34:59.440Z,81.94
2023-04-15T18:37:27.335Z,82.21
2023-04-15T18:39:54.490Z,82.95
2023-04-15T18:42:24.132Z,83.35
2023-04-15T18:44:52.840Z,82.94
2023-04-15T18:47:19.981Z,83.76
2023-04-15T18:49:46.865Z,83.85
2023-04-15T18:52:13.779Z,84.18
2023-04-15T18:54:40.687Z,84.14
2023-04-15T18:57:09.240Z,84.59
2023-04-15T18:59:38.322Z,84.81
2023-04-15T19:02:05.338Z,85.27
2023-04-15T19:04:32.992Z,85.19
2023-04-15T19:07:01.632Z,84.36
2023-04-15T19:09:29.234Z,85.01
2023-04-15T19:11:56.629Z,85.46
2023-04-15T19:14:24.220Z,85.62
2023-04-15T19:16:52.596Z,85.35
2023-04-15T19:19:19.637Z,85.88
2023-04-15T19:21:46.999Z,86.01
2023-04-15T19:24:15.089Z,85.86
2023-04-15T19:26:42.126Z,85.73
2023-04-15T19:29:09.209Z,85.94
2023-04-15T19:31:38.746Z,86.24
2023-04-15T19:34:07.666Z,86.38
2023-04-15T19:36:36.451Z,86.42
2023-04-15T19:39:06.328Z,86.01
2023-04-15T19:41:33.971Z,86.50
2023-04-15T19:55:21.515Z,87.36
2023-04-15T19:57:49.208Z,87.17
2023-04-15T20:00:48.277Z,87.47
2023-04-15T20:03:15.927Z,87.15
2023-04-15T20:05:45.814Z,87.34
2023-04-15T20:08:15.611Z,86.85
2023-04-15T20:10:44.225Z,87.37
2023-04-15T20:18:01.559Z,87.65
2023-04-15T20:20:57.811Z,87.52
2023-04-15T20:24:04.667Z,87.71
2023-04-15T20:26:33.234Z,87.68
2023-04-15T20:29:00.538Z,87.63
2023-04-15T20:31:27.651Z,87.45
2023-04-15T20:33:54.766Z,87.96
2023-04-15T20:36:21.957Z,87.49
2023-04-15T20:38:48.916Z,87.44
2023-04-15T20:41:15.846Z,87.78
2023-04-15T20:43:44.119Z,87.76
2023-04-15T20:46:20.387Z,87.84
2023-04-15T20:48:48.577Z,87.75
2023-04-15T20:51:15.562Z,87.76
2023-04-15T20:53:42.563Z,87.88
2023-04-15T20:56:09.842Z,88.13
2023-04-15T20:58:36.792Z,88.11
2023-04-15T21:01:05.112Z,88.17
2023-04-15T21:03:32.281Z,88.22
2023-04-15T21:05:59.661Z,88.18
2023-04-15T21:08:26.639Z,88.29
2023-04-15T21:10:53.499Z,87.88
2023-04-15T21:13:20.564Z,88.26
2023-04-15T21:15:47.769Z,88.10
2023-04-15T21:18:16.036Z,88.11
2023-04-15T21:20:42.906Z,88.17
2023-04-15T21:23:11.328Z,88.14
2023-04-15T21:25:40.073Z,87.90
2023-04-15T21:28:07.043Z,87.73
2023-04-15T21:30:33.854Z,87.76
2023-04-15T21:33:00.869Z,87.95
2023-04-15T21:35:29.738Z,87.69
2023-04-15T21:37:57.600Z,87.83
2023-04-15T21:40:24.501Z,88.23
2023-04-15T21:42:52.601Z,88.10
2023-04-15T21:45:19.629Z,88.62
2023-04-15T21:48:07.417Z,88.46
2023-04-15T21:50:39.029Z,87.89
2023-04-15T21:53:09.157Z,88.36
2023-04-15T21:55:36.517Z,88.16
2023-04-15T21:58:03.446Z,88.65
2023-04-15T22:00:31.439Z,88.50
2023-04-15T22:02:58.404Z,88.48
2023-04-15T22:05:25.454Z,88.73
2023-04-15T22:07:54.385Z,88.81
2023-04-15T22:10:21.794Z,88.84
2023-04-15T22:12:48.833Z,88.52
2023-04-15T22:15:16.789Z,88.34
2023-04-15T22:17:44.065Z,88.11
2023-04-15T22:20:11.244Z,88.02
2023-04-15T22:22:44.150Z,87.76
2023-04-15T22:25:14.478Z,88.08
2023-04-15T22:27:41.586Z,87.73
2023-04-15T22:30:10.472Z,87.51
2023-04-15T22:32:37.352Z,87.12
2023-04-15T22:35:05.248Z,87.25
2023-04-15T22:37:32.265Z,87.30
2023-04-15T22:39:59.445Z,87.91
2023-04-15T22:42:28.004Z,87.78
2023-04-15T22:44:54.898Z,88.08
2023-04-15T22:47:21.819Z,88.18
2023-04-15T22:49:48.828Z,88.23
2023-04-15T22:52:29.532Z,88.18
2023-04-15T22:54:58.141Z,87.99
2023-04-15T22:57:25.214Z,88.08
2023-04-15T22:59:53.549Z,87.95
2023-04-15T23:02:20.601Z,87.53
2023-04-15T23:04:47.804Z,87.59
2023-04-15T23:07:14.982Z,88.23
2023-04-15T23:09:41.878Z,87.68
2023-04-15T23:12:08.777Z,88.11
2023-04-15T23:14:36.137Z,88.15
2023-04-15T23:17:04.343Z,88.15
2023-04-15T23:19:31.186Z,88.27
2023-04-15T23:21:58.219Z,88.46
2023-04-15T23:24:25.070Z,88.30
2023-04-15T23:26:52.182Z,88.23
2023-04-15T23:29:19.004Z,88.02
2023-04-15T23:31:46.049Z,88.47
2023-04-15T23:34:14.527Z,88.56
2023-04-15T23:36:41.673Z,88.67
2023-04-15T23:39:08.973Z,88.55
2023-04-15T23:46:23.843Z,88.55
2023-04-15T23:48:51.106Z,88.07
2023-04-15T23:51:19.627Z,88.14
2023-04-15T23:53:47.300Z,88.42
2023-04-15T23:56:14.144Z,88.02
2023-04-15T23:58:41.360Z,87.91
